createdAt,value
2023-04-08T00:00:51.410Z,100545.34
2023-04-08T00:01:55.104Z,100544.23
2023-04-08T00:02:57.720Z,100547.32
2023-04-08T00:04:01.611Z,100545.31
2023-04-08T00:05:05.134Z,100537.01
2023-04-08T00:06:10.104Z,100539.27
2023-04-08T00:07:13.702Z,100537.81
2023-04-08T00:08:18.775Z,100536.97
2023-04-08T00:09:23.021Z,100534.86
2023-04-08T00:10:28.223Z,100537.52
2023-04-08T00:11:31.810Z,100541.58
2023-04-08T00:12:34.268Z,100539.98
2023-04-08T00:13:37.774Z,100545.17
2023-04-08T00:14:43.221Z,100545.34
2023-04-08T00:15:49.693Z,100543.71
2023-04-08T00:16:53.091Z,100540.30
2023-04-08T00:17:57.268Z,100535.83
2023-04-08T00:18:59.590Z,100540.69
2023-04-08T00:20:03.124Z,100531.66
2023-04-08T00:21:07.445Z,100530.70
2023-04-08T00:22:12.740Z,100536.33
2023-04-08T00:23:16.131Z,100533.56
2023-04-08T00:24:20.950Z,100533.27
2023-04-08T00:25:25.511Z,100534.88
2023-04-08T00:26:28.481Z,100530.05
2023-04-08T00:27:32.215Z,100534.88
2023-04-08T00:28:37.033Z,100528.27
2023-04-08T00:29:41.869Z,100532.44
2023-04-08T00:30:45.393Z,100531.56
2023-04-08T00:31:49.367Z,100529.09
2023-04-08T00:32:55.407Z,100528.50
2023-04-08T00:33:58.978Z,100524.99
2023-04-08T00:35:04.250Z,100527.88
2023-04-08T00:36:09.758Z,100530.34
2023-04-08T00:37:12.949Z,100525.21
2023-04-08T00:38:15.195Z,100529.13
2023-04-08T00:39:18.471Z,100525.52
2023-04-08T00:40:22.317Z,100522.27
2023-04-08T00:41:26.557Z,100526.30
2023-04-08T00:42:32.568Z,100520.33
2023-04-08T00:43:36.829Z,100524.20
2023-04-08T00:44:39.734Z,100526.54
2023-04-08T00:45:43.080Z,100529.82
2023-04-08T00:46:46.721Z,100526.80
2023-04-08T00:47:53.274Z,100529.82
2023-04-08T00:48:56.592Z,100530.15
2023-04-08T00:50:00.895Z,100523.78
2023-04-08T00:51:05.006Z,100515.41
2023-04-08T00:52:07.649Z,100523.58
2023-04-08T00:53:13.769Z,100514.52
2023-04-08T00:54:22.146Z,100518.42
2023-04-08T00:55:25.307Z,100517.48
2023-04-08T00:56:28.922Z,100520.27
2023-04-08T00:57:32.328Z,100523.19
2023-04-08T00:58:35.608Z,100516.06
2023-04-08T00:59:38.992Z,100522.10
2023-04-08T01:00:46.041Z,100518.59
2023-04-08T01:01:57.445Z,100517.53
2023-04-08T01:03:02.246Z,100517.21
2023-04-08T01:04:24.093Z,100518.28
2023-04-08T01:05:43.889Z,100515.73
2023-04-08T01:06:48.958Z,100514.58
2023-04-08T01:07:53.982Z,100510.95
2023-04-08T01:08:59.142Z,100515.73
2023-04-08T01:10:06.203Z,100512.67
2023-04-08T01:11:12.240Z,100510.00
2023-04-08T01:12:23.654Z,100516.38
2023-04-08T01:13:29.033Z,100517.23
2023-04-08T01:14:33.590Z,100528.08
2023-04-08T01:15:39.639Z,100522.66
2023-04-08T01:16:42.364Z,100519.23
2023-04-08T01:17:46.841Z,100511.89
2023-04-08T01:18:58.196Z,100509.83
2023-04-08T01:20:06.907Z,100503.52
2023-04-08T01:21:12.138Z,100497.87
2023-04-08T01:22:22.791Z,100501.78
2023-04-08T01:23:48.005Z,100502.78
2023-04-08T01:26:04.834Z,100511.63
2023-04-08T01:27:09.838Z,100509.30
2023-04-08T01:28:15.075Z,100509.73
2023-04-08T01:29:20.177Z,100508.88
2023-04-08T01:30:25.213Z,100519.74
2023-04-08T01:31:27.952Z,100510.74
2023-04-08T01:32:32.668Z,100508.19
2023-04-08T01:33:36.577Z,100503.09
2023-04-08T01:34:40.813Z,100502.02
2023-04-08T01:35:45.325Z,100511.27
2023-04-08T01:36:47.814Z,100503.48
2023-04-08T01:37:52.059Z,100504.90
2023-04-08T01:38:56.073Z,100512.02
2023-04-08T01:40:01.261Z,100509.89
2023-04-08T01:41:07.180Z,100517.58
2023-04-08T01:42:11.302Z,100520.23
2023-04-08T01:43:18.786Z,100520.62
2023-04-08T01:44:22.604Z,100524.14
2023-04-08T01:45:29.750Z,100532.21
2023-04-08T01:46:34.668Z,100525.84
2023-04-08T01:47:46.113Z,100532.44
2023-04-08T01:48:50.783Z,100524.75
2023-04-08T01:49:56.066Z,100522.23
2023-04-08T01:51:02.633Z,100530.97
2023-04-08T01:52:08.263Z,100527.26
2023-04-08T01:53:13.481Z,100529.39
2023-04-08T01:54:19.207Z,100519.09
2023-04-08T01:55:26.435Z,100521.94
2023-04-08T01:56:31.013Z,100526.59
2023-04-08T01:57:36.631Z,100521.38
2023-04-08T01:58:43.985Z,100519.28
2023-04-08T01:59:48.017Z,100509.89
2023-04-08T02:00:55.276Z,100517.58
2023-04-08T02:01:59.568Z,100520.69
2023-04-08T02:03:07.782Z,100519.41
2023-04-08T02:04:13.879Z,100525.55
2023-04-08T02:05:18.273Z,100524.70
2023-04-08T02:06:21.472Z,100519.67
2023-04-08T02:07:25.384Z,100522.56
2023-04-08T02:08:28.532Z,100529.68
2023-04-08T02:09:31.464Z,100530.77
2023-04-08T02:10:34.242Z,100520.79
2023-04-08T02:11:38.651Z,100527.39
2023-04-08T02:12:41.338Z,100526.44
2023-04-08T02:13:48.198Z,100530.70
2023-04-08T02:14:52.694Z,100519.52
2023-04-08T02:16:00.490Z,100513.77
2023-04-08T02:17:11.768Z,100518.72
2023-04-08T02:18:19.245Z,100514.87
2023-04-08T02:19:27.919Z,100516.68
2023-04-08T02:20:34.959Z,100513.41
2023-04-08T02:21:47.973Z,100510.51
2023-04-08T02:22:55.857Z,100518.42
2023-04-08T02:24:02.682Z,100504.38
2023-04-08T02:25:08.258Z,100504.34
2023-04-08T02:26:15.663Z,100509.56
2023-04-08T02:27:19.132Z,100506.28
2023-04-08T02:28:23.273Z,100507.27
2023-04-08T02:29:27.413Z,100509.33
2023-04-08T02:30:31.854Z,100506.57
2023-04-08T02:31:35.916Z,100508.88
2023-04-08T02:32:40.959Z,100508.02
2023-04-08T02:33:49.154Z,100499.84
2023-04-08T02:34:53.494Z,100506.21
2023-04-08T02:36:00.604Z,100507.27
2023-04-08T02:37:04.148Z,100507.59
2023-04-08T02:38:11.828Z,100516.26
2023-04-08T02:39:15.350Z,100522.80
2023-04-08T02:40:27.769Z,100513.86
2023-04-08T02:41:32.497Z,100518.23
2023-04-08T02:42:34.835Z,100519.94
2023-04-08T02:43:38.455Z,100521.55
2023-04-08T02:44:42.900Z,100517.91
2023-04-08T02:45:45.795Z,100523.02
2023-04-08T02:46:48.122Z,100521.94
2023-04-08T02:47:52.090Z,100522.14
2023-04-08T02:48:55.976Z,100524.20
2023-04-08T02:49:59.161Z,100525.16
2023-04-08T02:51:02.574Z,100522.27
2023-04-08T02:52:05.971Z,100521.41
2023-04-08T02:53:11.180Z,100520.27
2023-04-08T02:54:14.784Z,100522.07
2023-04-08T02:55:17.099Z,100522.89
2023-04-08T02:56:20.250Z,100523.55
2023-04-08T02:57:25.792Z,100523.78
2023-04-08T02:58:28.995Z,100512.94
2023-04-08T02:59:33.112Z,100520.92
2023-04-08T03:00:36.828Z,100514.22
2023-04-08T03:01:39.414Z,100517.86
2023-04-08T03:02:42.793Z,100519.22
2023-04-08T03:03:47.426Z,100513.89
2023-04-08T03:04:51.167Z,100522.73
2023-04-08T03:05:53.715Z,100521.84
2023-04-08T03:06:56.187Z,100520.69
2023-04-08T03:08:03.868Z,100531.10
2023-04-08T03:09:08.004Z,100531.20
2023-04-08T03:10:10.977Z,100534.19
2023-04-08T03:11:14.696Z,100533.33
2023-04-08T03:12:18.192Z,100532.48
2023-04-08T03:13:21.452Z,100535.33
2023-04-08T03:14:25.024Z,100531.06
2023-04-08T03:15:28.516Z,100535.53
2023-04-08T03:16:30.761Z,100536.14
2023-04-08T03:17:34.818Z,100532.77
2023-04-08T03:18:38.710Z,100537.23
2023-04-08T03:19:42.045Z,100529.36
2023-04-08T03:20:47.709Z,100530.41
2023-04-08T03:21:51.523Z,100531.06
2023-04-08T03:22:59.017Z,100539.37
2023-04-08T03:24:01.870Z,100526.07
2023-04-08T03:25:06.414Z,100526.17
2023-04-08T03:26:10.585Z,100528.41
2023-04-08T03:27:14.799Z,100535.43
2023-04-08T03:28:18.195Z,100528.02
2023-04-08T03:29:21.697Z,100530.48
2023-04-08T03:30:24.928Z,100529.06
2023-04-08T03:31:29.810Z,100532.48
2023-04-08T03:32:32.644Z,100526.50
2023-04-08T03:33:36.446Z,100521.55
2023-04-08T03:34:39.628Z,100525.78
2023-04-08T03:35:42.468Z,100525.88
2023-04-08T03:36:45.078Z,100532.77
2023-04-08T03:37:48.600Z,100532.67
2023-04-08T03:38:52.150Z,100533.92
2023-04-08T03:39:57.150Z,100527.22
2023-04-08T03:41:01.544Z,100527.97
2023-04-08T03:42:03.864Z,100529.60
2023-04-08T03:43:11.961Z,100530.36
2023-04-08T03:44:15.584Z,100531.97
2023-04-08T03:45:18.998Z,100532.73
2023-04-08T03:46:26.357Z,100529.13
2023-04-08T03:47:30.928Z,100521.58
2023-04-08T03:48:35.068Z,100526.59
2023-04-08T03:49:38.531Z,100530.87
2023-04-08T03:50:43.605Z,100532.97
2023-04-08T03:51:46.818Z,100537.44
2023-04-08T03:52:49.553Z,100533.82
2023-04-08T03:53:53.378Z,100537.14
2023-04-08T03:54:57.427Z,100532.37
2023-04-08T03:55:59.855Z,100535.70
2023-04-08T03:57:03.167Z,100540.89
2023-04-08T03:58:07.530Z,100538.59
2023-04-08T03:59:10.905Z,100538.29
2023-04-08T04:00:13.993Z,100540.20
2023-04-08T04:01:17.977Z,100531.66
2023-04-08T04:02:21.980Z,100543.91
2023-04-08T04:03:26.103Z,100546.66
2023-04-08T04:04:28.674Z,100544.47
2023-04-08T04:05:31.727Z,100538.16
2023-04-08T04:06:34.913Z,100543.71
2023-04-08T04:07:39.152Z,100547.23
2023-04-08T04:08:42.869Z,100545.42
2023-04-08T04:09:47.945Z,100548.08
2023-04-08T04:10:51.033Z,100549.23
2023-04-08T04:11:56.224Z,100550.31
2023-04-08T04:12:59.451Z,100543.38
2023-04-08T04:14:03.009Z,100547.65
2023-04-08T04:15:07.034Z,100553.06
2023-04-08T04:16:11.092Z,100550.21
2023-04-08T04:17:14.504Z,100550.87
2023-04-08T04:18:17.996Z,100553.06
2023-04-08T04:19:24.315Z,100557.77
2023-04-08T04:20:29.567Z,100546.40
2023-04-08T04:21:33.726Z,100557.50
2023-04-08T04:22:37.614Z,100560.21
2023-04-08T04:23:39.875Z,100550.82
2023-04-08T04:24:45.983Z,100553.94
2023-04-08T04:25:49.599Z,100555.61
2023-04-08T04:26:53.009Z,100549.11
2023-04-08T04:27:55.763Z,100559.20
2023-04-08T04:29:01.740Z,100548.81
2023-04-08T04:30:04.775Z,100549.02
2023-04-08T04:31:12.716Z,100547.84
2023-04-08T04:32:16.792Z,100556.44
2023-04-08T04:33:20.222Z,100560.31
2023-04-08T04:34:23.372Z,100556.05
2023-04-08T04:35:26.908Z,100564.34
2023-04-08T04:36:31.685Z,100563.41
2023-04-08T04:37:35.889Z,100565.97
2023-04-08T04:38:39.804Z,100573.75
2023-04-08T04:39:44.772Z,100572.88
2023-04-08T04:40:51.214Z,100569.28
2023-04-08T04:41:54.810Z,100569.37
2023-04-08T04:42:58.214Z,100560.74
2023-04-08T04:44:02.757Z,100568.01
2023-04-08T04:45:06.311Z,100563.74
2023-04-08T04:46:12.567Z,100567.26
2023-04-08T04:47:16.821Z,100569.72
2023-04-08T04:48:20.439Z,100570.88
2023-04-08T04:49:24.044Z,100576.40
2023-04-08T04:50:27.757Z,100574.04
2023-04-08T04:51:32.204Z,100577.16
2023-04-08T04:52:36.644Z,100574.39
2023-04-08T04:53:42.243Z,100574.40
2023-04-08T04:54:45.642Z,100576.31
2023-04-08T04:55:48.296Z,100572.37
2023-04-08T04:56:51.824Z,100583.34
2023-04-08T04:57:55.636Z,100575.03
2023-04-08T04:58:58.717Z,100586.99
2023-04-08T05:00:04.684Z,100583.25
2023-04-08T05:01:07.363Z,100583.02
2023-04-08T05:02:10.772Z,100581.29
2023-04-08T05:03:13.809Z,100575.64
2023-04-08T05:04:18.548Z,100575.95
2023-04-08T05:05:22.256Z,100576.92
2023-04-08T05:06:27.021Z,100577.27
2023-04-08T05:07:31.781Z,100577.69
2023-04-08T05:08:37.268Z,100577.45
2023-04-08T05:09:39.940Z,100586.86
2023-04-08T05:10:44.805Z,100580.86
2023-04-08T05:11:48.007Z,100577.88
2023-04-08T05:12:51.807Z,100582.27
2023-04-08T05:13:53.988Z,100588.05
2023-04-08T05:14:59.137Z,100583.58
2023-04-08T05:16:07.560Z,100580.58
2023-04-08T05:17:12.949Z,100584.44
2023-04-08T05:18:18.806Z,100576.55
2023-04-08T05:19:22.455Z,100575.58
2023-04-08T05:20:26.074Z,100578.34
2023-04-08T05:21:29.045Z,100585.70
2023-04-08T05:22:32.378Z,100581.45
2023-04-08T05:23:36.371Z,100572.59
2023-04-08T05:24:39.354Z,100575.68
2023-04-08T05:25:44.000Z,100576.09
2023-04-08T05:26:49.525Z,100578.15
2023-04-08T05:27:55.170Z,100576.09
2023-04-08T05:28:57.576Z,100584.09
2023-04-08T05:30:02.001Z,100577.92
2023-04-08T05:31:07.233Z,100582.38
2023-04-08T05:32:10.562Z,100583.73
2023-04-08T05:33:15.007Z,100578.86
2023-04-08T05:34:23.275Z,100586.64
2023-04-08T05:35:26.764Z,100590.26
2023-04-08T05:36:30.120Z,100589.66
2023-04-08T05:37:33.635Z,100593.48
2023-04-08T05:38:37.129Z,100592.59
2023-04-08T05:39:40.436Z,100585.55
2023-04-08T05:40:43.940Z,100592.30
2023-04-08T05:41:48.301Z,100584.59
2023-04-08T05:42:53.698Z,100594.05
2023-04-08T05:43:57.276Z,100588.70
2023-04-08T05:45:00.273Z,100586.37
2023-04-08T05:46:06.268Z,100584.78
2023-04-08T05:47:09.648Z,100587.01
2023-04-08T05:48:13.387Z,100587.50
2023-04-08T05:49:16.986Z,100586.53
2023-04-08T05:50:19.353Z,100589.38
2023-04-08T05:51:22.746Z,100588.92
2023-04-08T05:52:26.374Z,100587.05
2023-04-08T05:53:30.273Z,100595.06
2023-04-08T05:54:35.334Z,100590.25
2023-04-08T05:55:39.683Z,100596.37
2023-04-08T05:56:45.958Z,100594.04
2023-04-08T05:57:50.571Z,100589.97
2023-04-08T05:58:52.900Z,100590.67
2023-04-08T05:59:56.776Z,100589.09
2023-04-08T06:00:59.018Z,100588.42
2023-04-08T06:02:03.637Z,100588.86
2023-04-08T06:03:07.583Z,100599.37
2023-04-08T06:04:11.058Z,100595.80
2023-04-08T06:05:14.888Z,100591.59
2023-04-08T06:06:19.145Z,100595.58
2023-04-08T06:07:23.454Z,100588.93
2023-04-08T06:08:26.343Z,100591.92
2023-04-08T06:09:29.745Z,100591.16
2023-04-08T06:10:32.410Z,100597.88
2023-04-08T06:11:36.018Z,100593.41
2023-04-08T06:12:40.256Z,100601.41
2023-04-08T06:13:46.777Z,100591.06
2023-04-08T06:14:55.329Z,100594.91
2023-04-08T06:15:58.802Z,100598.21
2023-04-08T06:17:02.239Z,100596.72
2023-04-08T06:18:05.519Z,100602.04
2023-04-08T06:19:08.800Z,100604.45
2023-04-08T06:20:14.211Z,100600.55
2023-04-08T06:21:18.737Z,100598.69
2023-04-08T06:22:22.245Z,100598.14
2023-04-08T06:23:25.957Z,100609.83
2023-04-08T06:24:31.213Z,100608.76
2023-04-08T06:25:36.325Z,100615.22
2023-04-08T06:26:39.605Z,100614.55
2023-04-08T06:27:43.006Z,100616.30
2023-04-08T06:28:46.413Z,100612.25
2023-04-08T06:29:50.659Z,100608.80
2023-04-08T06:30:54.242Z,100606.97
2023-04-08T06:31:57.910Z,100620.15
2023-04-08T06:33:01.578Z,100611.19
2023-04-08T06:34:05.186Z,100618.47
2023-04-08T06:35:09.422Z,100612.78
2023-04-08T06:36:13.030Z,100606.83
2023-04-08T06:37:16.320Z,100618.74
2023-04-08T06:38:19.470Z,100624.19
2023-04-08T06:40:33.960Z,100612.77
2023-04-08T06:41:37.335Z,100624.77
2023-04-08T06:42:44.401Z,100625.50
2023-04-08T06:43:56.085Z,100634.90
2023-04-08T06:44:59.660Z,100624.06
2023-04-08T06:46:03.036Z,100625.67
2023-04-08T06:47:06.682Z,100627.83
2023-04-08T06:48:09.653Z,100612.12
2023-04-08T06:49:13.592Z,100624.63
2023-04-08T06:50:17.500Z,100623.53
2023-04-08T06:51:20.708Z,100622.83
2023-04-08T06:52:26.896Z,100622.38
2023-04-08T06:53:30.512Z,100625.51
2023-04-08T06:54:35.280Z,100622.67
2023-04-08T06:55:38.682Z,100628.53
2023-04-08T06:56:41.046Z,100624.26
2023-04-08T06:57:44.646Z,100632.50
2023-04-08T06:58:48.134Z,100629.62
2023-04-08T06:59:54.912Z,100640.34
2023-04-08T07:00:59.783Z,100641.78
2023-04-08T07:02:03.102Z,100636.06
2023-04-08T07:03:07.787Z,100632.89
2023-04-08T07:04:11.989Z,100658.13
2023-04-08T07:05:15.761Z,100653.08
2023-04-08T07:06:21.967Z,100672.23
2023-04-08T07:07:26.149Z,100665.41
2023-04-08T07:08:29.841Z,100662.10
2023-04-08T07:09:33.332Z,100656.51
2023-04-08T07:10:36.700Z,100667.48
2023-04-08T07:11:40.240Z,100663.82
2023-04-08T07:12:43.644Z,100668.77
2023-04-08T07:13:49.552Z,100677.35
2023-04-08T07:14:54.830Z,100671.73
2023-04-08T07:15:58.127Z,100678.05
2023-04-08T07:17:03.528Z,100687.42
2023-04-08T07:18:07.013Z,100701.50
2023-04-08T07:19:12.393Z,100686.01
2023-04-08T07:20:16.319Z,100683.23
2023-04-08T07:21:20.678Z,100677.69
2023-04-08T07:22:23.986Z,100682.60
2023-04-08T07:23:27.463Z,100687.52
2023-04-08T07:24:30.864Z,100686.65
2023-04-08T07:25:34.792Z,100692.95
2023-04-08T07:26:41.748Z,100685.98
2023-04-08T07:27:45.045Z,100682.98
2023-04-08T07:28:48.167Z,100677.87
2023-04-08T07:29:54.553Z,100664.09
2023-04-08T07:30:57.866Z,100662.34
2023-04-08T07:32:00.411Z,100662.48
2023-04-08T07:33:03.935Z,100671.69
2023-04-08T07:34:06.486Z,100678.53
2023-04-08T07:35:09.568Z,100685.34
2023-04-08T07:36:13.480Z,100673.78
2023-04-08T07:37:16.673Z,100676.09
2023-04-08T07:38:20.742Z,100677.14
2023-04-08T07:39:23.266Z,100678.17
2023-04-08T07:40:28.993Z,100666.72
2023-04-08T07:41:31.436Z,100666.38
2023-04-08T07:42:38.671Z,100668.13
2023-04-08T07:43:41.266Z,100670.13
2023-04-08T07:44:45.931Z,100667.28
2023-04-08T07:45:49.276Z,100665.97
2023-04-08T07:46:52.605Z,100671.59
2023-04-08T07:47:56.050Z,100672.47
2023-04-08T07:48:59.619Z,100669.50
2023-04-08T07:50:04.307Z,100661.06
2023-04-08T07:51:11.602Z,100672.80
2023-04-08T07:52:17.240Z,100675.99
2023-04-08T07:53:20.789Z,100671.44
2023-04-08T07:54:24.507Z,100660.24
2023-04-08T07:55:28.722Z,100673.31
2023-04-08T07:56:32.520Z,100678.32
2023-04-08T07:57:36.861Z,100683.27
2023-04-08T07:58:41.041Z,100672.27
2023-04-08T07:59:44.806Z,100676.77
2023-04-08T08:00:48.309Z,100677.03
2023-04-08T08:01:52.267Z,100680.23
2023-04-08T08:02:59.366Z,100677.92
2023-04-08T08:04:03.341Z,100667.86
2023-04-08T08:05:07.349Z,100675.83
2023-04-08T08:06:13.141Z,100668.64
2023-04-08T08:07:18.728Z,100677.09
2023-04-08T08:08:23.838Z,100689.23
2023-04-08T08:09:27.262Z,100682.28
2023-04-08T08:10:30.819Z,100684.52
2023-04-08T08:11:35.582Z,100675.89
2023-04-08T08:12:38.901Z,100684.03
2023-04-08T08:13:41.345Z,100684.03
2023-04-08T08:14:45.364Z,100670.55
2023-04-08T08:15:51.129Z,100683.86
2023-04-08T08:16:56.447Z,100676.08
2023-04-08T08:18:01.614Z,100674.50
2023-04-08T08:19:10.043Z,100670.25
2023-04-08T08:20:16.884Z,100662.47
2023-04-08T08:21:20.002Z,100665.28
2023-04-08T08:22:23.790Z,100664.33
2023-04-08T08:23:28.997Z,100660.87
2023-04-08T08:24:32.679Z,100661.56
2023-04-08T08:25:37.427Z,100648.22
2023-04-08T08:26:41.274Z,100648.06
2023-04-08T08:27:45.801Z,100652.27
2023-04-08T08:28:50.670Z,100642.38
2023-04-08T08:29:54.085Z,100651.45
2023-04-08T08:30:57.805Z,100648.22
2023-04-08T08:32:01.811Z,100645.70
2023-04-08T08:33:04.924Z,100643.23
2023-04-08T08:34:08.362Z,100644.61
2023-04-08T08:35:11.910Z,100648.77
2023-04-08T08:36:15.271Z,100647.14
2023-04-08T08:37:18.530Z,100641.90
2023-04-08T08:38:22.022Z,100641.05
2023-04-08T08:39:24.572Z,100642.81
2023-04-08T08:40:27.889Z,100637.02
2023-04-08T08:41:35.561Z,100640.47
2023-04-08T08:42:40.204Z,100634.03
2023-04-08T08:43:45.664Z,100646.62
2023-04-08T08:44:49.742Z,100654.55
2023-04-08T08:45:53.087Z,100648.02
2023-04-08T08:46:57.411Z,100656.89
2023-04-08T08:48:02.588Z,100643.16
2023-04-08T08:49:05.515Z,100651.19
2023-04-08T08:50:09.330Z,100645.13
2023-04-08T08:51:13.674Z,100646.80
2023-04-08T08:52:22.252Z,100648.06
2023-04-08T08:53:29.033Z,100649.17
2023-04-08T08:54:32.961Z,100652.37
2023-04-08T08:56:02.129Z,100652.38
2023-04-08T08:56:42.575Z,100648.21
2023-04-08T08:57:50.475Z,100650.36
2023-04-08T08:58:56.342Z,100648.92
2023-04-08T09:00:00.170Z,100646.01
2023-04-08T09:01:03.914Z,100649.83
2023-04-08T09:02:12.135Z,100651.50
2023-04-08T09:03:23.549Z,100643.45
2023-04-08T09:04:27.175Z,100647.31
2023-04-08T09:05:31.050Z,100658.16
2023-04-08T09:06:34.700Z,100656.73
2023-04-08T09:07:41.350Z,100656.70
2023-04-08T09:08:44.575Z,100655.59
2023-04-08T09:09:53.500Z,100659.19
2023-04-08T09:10:57.602Z,100647.94
2023-04-08T09:12:04.343Z,100652.30
2023-04-08T09:13:08.708Z,100650.61
2023-04-08T09:14:21.694Z,100647.48
2023-04-08T09:15:25.322Z,100654.20
2023-04-08T09:16:30.225Z,100661.51
2023-04-08T09:17:35.723Z,100660.64
2023-04-08T09:18:38.754Z,100648.77
2023-04-08T09:19:42.982Z,100655.55
2023-04-08T09:20:54.006Z,100655.40
2023-04-08T09:22:07.064Z,100649.60
2023-04-08T09:23:12.324Z,100648.84
2023-04-08T09:24:31.910Z,100652.00
2023-04-08T09:25:34.199Z,100650.63
2023-04-08T09:26:39.303Z,100649.14
2023-04-08T09:27:44.803Z,100658.30
2023-04-08T09:29:14.266Z,100662.84
2023-04-08T09:30:15.419Z,100658.27
2023-04-08T09:31:23.054Z,100662.99
2023-04-08T09:32:28.334Z,100671.70
2023-04-08T09:33:33.086Z,100671.17
2023-04-08T09:34:37.503Z,100676.68
2023-04-08T09:35:40.505Z,100673.98
2023-04-08T09:36:44.978Z,100672.64
2023-04-08T09:37:49.927Z,100667.34
2023-04-08T09:38:52.233Z,100660.36
2023-04-08T09:39:55.519Z,100668.94
2023-04-08T09:40:59.263Z,100673.39
2023-04-08T09:42:03.907Z,100668.86
2023-04-08T09:43:08.334Z,100668.78
2023-04-08T09:44:12.051Z,100666.86
2023-04-08T09:45:17.850Z,100665.81
2023-04-08T09:46:29.580Z,100660.72
2023-04-08T09:47:35.969Z,100665.33
2023-04-08T09:48:44.383Z,100663.66
2023-04-08T09:49:48.784Z,100661.86
2023-04-08T09:50:53.457Z,100667.56
2023-04-08T09:52:19.938Z,100666.56
2023-04-08T09:53:27.201Z,100661.32
2023-04-08T09:54:39.481Z,100653.46
2023-04-08T09:55:44.228Z,100661.52
2023-04-08T09:56:53.696Z,100662.02
2023-04-08T09:57:58.246Z,100663.42
2023-04-08T09:59:02.483Z,100660.73
2023-04-08T10:00:10.395Z,100659.56
2023-04-08T10:01:16.550Z,100666.58
2023-04-08T10:02:21.928Z,100661.03
2023-04-08T10:03:29.228Z,100667.95
2023-04-08T10:04:33.780Z,100657.16
2023-04-08T10:05:42.833Z,100664.48
2023-04-08T10:06:46.862Z,100679.97
2023-04-08T10:07:50.064Z,100673.05
2023-04-08T10:08:54.424Z,100665.03
2023-04-08T10:09:58.527Z,100670.80
2023-04-08T10:11:00.987Z,100665.62
2023-04-08T10:12:03.875Z,100679.35
2023-04-08T10:13:08.209Z,100678.97
2023-04-08T10:14:12.545Z,100685.69
2023-04-08T10:15:25.980Z,100683.34
2023-04-08T10:16:31.648Z,100686.03
2023-04-08T10:17:37.034Z,100684.48
2023-04-08T10:18:40.448Z,100685.05
2023-04-08T10:19:45.216Z,100681.55
2023-04-08T10:20:50.991Z,100675.91
2023-04-08T10:21:54.278Z,100677.86
2023-04-08T10:22:58.304Z,100684.13
2023-04-08T10:24:05.670Z,100680.69
2023-04-08T10:25:18.848Z,100675.13
2023-04-08T10:26:35.469Z,100674.66
2023-04-08T10:27:42.350Z,100682.75
2023-04-08T10:28:46.146Z,100681.68
2023-04-08T10:29:49.552Z,100679.10
2023-04-08T10:30:56.656Z,100684.49
2023-04-08T10:32:02.256Z,100683.09
2023-04-08T10:33:14.171Z,100680.39
2023-04-08T10:34:21.912Z,100691.10
2023-04-08T10:36:47.495Z,100684.66
2023-04-08T10:37:51.158Z,100699.81
2023-04-08T10:38:54.350Z,100685.48
2023-04-08T10:39:57.790Z,100683.79
2023-04-08T10:41:01.332Z,100684.13
2023-04-08T10:42:04.257Z,100679.25
2023-04-08T10:43:09.184Z,100683.61
2023-04-08T10:44:19.942Z,100682.58
2023-04-08T10:45:23.224Z,100667.52
2023-04-08T10:46:28.639Z,100684.16
2023-04-08T10:47:32.935Z,100681.67
2023-04-08T10:48:35.306Z,100689.30
2023-04-08T10:49:39.452Z,100688.39
2023-04-08T10:50:43.045Z,100683.11
2023-04-08T10:51:50.140Z,100682.14
2023-04-08T10:52:54.240Z,100677.13
2023-04-08T10:53:59.826Z,100673.81
2023-04-08T10:55:03.759Z,100678.52
2023-04-08T10:56:10.065Z,100665.33
2023-04-08T10:57:13.595Z,100683.11
2023-04-08T10:58:17.804Z,100680.41
2023-04-08T10:59:32.170Z,100678.25
2023-04-08T11:00:39.764Z,100676.92
2023-04-08T11:01:46.733Z,100689.71
2023-04-08T11:02:50.421Z,100681.61
2023-04-08T11:03:54.921Z,100679.97
2023-04-08T11:05:00.209Z,100677.64
2023-04-08T11:06:04.387Z,100677.23
2023-04-08T11:07:08.333Z,100670.19
2023-04-08T11:08:12.056Z,100665.73
2023-04-08T11:09:15.956Z,100666.19
2023-04-08T11:10:18.202Z,100666.34
2023-04-08T11:11:22.232Z,100663.18
2023-04-08T11:12:27.397Z,100663.01
2023-04-08T11:13:31.441Z,100657.29
2023-04-08T11:14:36.190Z,100652.97
2023-04-08T11:15:39.761Z,100660.42
2023-04-08T11:16:44.121Z,100659.20
2023-04-08T11:17:49.447Z,100652.12
2023-04-08T11:18:54.183Z,100648.43
2023-04-08T11:20:04.169Z,100651.83
2023-04-08T11:21:12.265Z,100659.35
2023-04-08T11:22:17.127Z,100654.85
2023-04-08T11:23:20.618Z,100653.08
2023-04-08T11:24:24.344Z,100655.01
2023-04-08T11:25:27.327Z,100652.15
2023-04-08T11:26:30.313Z,100660.05
2023-04-08T11:27:35.860Z,100653.81
2023-04-08T11:28:40.283Z,100654.17
2023-04-08T11:29:43.015Z,100657.54
2023-04-08T11:30:45.397Z,100655.39
2023-04-08T11:31:51.914Z,100648.28
2023-04-08T11:32:56.683Z,100648.36
2023-04-08T11:34:00.475Z,100647.07
2023-04-08T11:35:06.106Z,100648.68
2023-04-08T11:36:10.104Z,100655.55
2023-04-08T11:37:14.263Z,100646.62
2023-04-08T11:38:18.055Z,100649.16
2023-04-08T11:39:23.439Z,100636.08
2023-04-08T11:40:27.153Z,100636.67
2023-04-08T11:41:37.446Z,100633.53
2023-04-08T11:42:41.812Z,100632.12
2023-04-08T11:43:57.482Z,100625.78
2023-04-08T11:45:01.020Z,100621.34
2023-04-08T11:46:10.727Z,100625.40
2023-04-08T11:47:14.006Z,100628.44
2023-04-08T11:48:18.138Z,100634.22
2023-04-08T11:49:23.213Z,100627.81
2023-04-08T11:50:27.322Z,100636.45
2023-04-08T11:51:31.238Z,100630.88
2023-04-08T11:52:44.385Z,100635.69
2023-04-08T11:53:49.945Z,100633.41
2023-04-08T11:54:54.495Z,100629.75
2023-04-08T11:55:58.129Z,100625.43
2023-04-08T11:57:01.291Z,100633.72
2023-04-08T11:58:06.991Z,100637.37
2023-04-08T11:59:10.395Z,100640.78
2023-04-08T12:00:14.344Z,100642.07
2023-04-08T12:01:21.076Z,100632.42
2023-04-08T12:02:23.487Z,100636.25
2023-04-08T12:03:27.867Z,100627.17
2023-04-08T12:04:31.217Z,100617.09
2023-04-08T12:05:34.757Z,100620.02
2023-04-08T12:06:39.635Z,100620.84
2023-04-08T12:07:43.663Z,100625.81
2023-04-08T12:08:47.164Z,100618.70
2023-04-08T12:09:52.266Z,100614.15
2023-04-08T12:10:54.599Z,100618.85
2023-04-08T12:11:58.826Z,100614.44
2023-04-08T12:13:02.033Z,100613.59
2023-04-08T12:14:08.636Z,100620.66
2023-04-08T12:15:12.487Z,100612.83
2023-04-08T12:16:17.002Z,100605.36
2023-04-08T12:17:21.052Z,100607.86
2023-04-08T12:18:25.490Z,100608.05
2023-04-08T12:19:29.107Z,100600.92
2023-04-08T12:20:32.247Z,100590.67
2023-04-08T12:21:34.655Z,100598.07
2023-04-08T12:22:38.324Z,100590.72
2023-04-08T12:23:41.520Z,100587.59